createdAt,value
2022-10-19T00:00:12.251Z,100574.96
2022-10-19T00:03:04.347Z,100572.69
2022-10-19T00:05:36.349Z,100570.11
2022-10-19T00:08:09.226Z,100563.78
2022-10-19T00:10:43.722Z,100567.15
2022-10-19T00:13:15.608Z,100570.10
2022-10-19T00:15:47.680Z,100571.06
2022-10-19T00:18:19.679Z,100574.73
2022-10-19T00:20:51.721Z,100576.22
2022-10-19T00:23:23.682Z,100568.80
2022-10-19T00:25:59.643Z,100563.29
2022-10-19T00:28:31.831Z,100560.87
2022-10-19T00:31:07.485Z,100565.16
2022-10-19T00:33:40.062Z,100562.59
2022-10-19T00:36:18.892Z,100563.41
2022-10-19T00:38:51.136Z,100561.85
2022-10-19T00:41:24.038Z,100557.30
2022-10-19T00:43:59.574Z,100558.20
2022-10-19T00:46:33.671Z,100555.44
2022-10-19T00:49:10.724Z,100554.41
2022-10-19T00:51:47.832Z,100551.66
2022-10-19T00:54:20.724Z,100548.05
2022-10-19T00:56:56.290Z,100552.27
2022-10-19T00:59:31.915Z,100559.23
2022-10-19T01:02:06.478Z,100555.53
2022-10-19T01:04:41.575Z,100553.18
2022-10-19T01:07:13.955Z,100553.93
2022-10-19T01:09:46.112Z,100552.86
2022-10-19T01:12:31.532Z,100552.70
2022-10-19T01:15:19.585Z,100548.97
2022-10-19T01:18:01.106Z,100545.05
2022-10-19T01:20:55.529Z,100545.76
2022-10-19T01:23:57.247Z,100540.27
2022-10-19T01:26:51.220Z,100537.10
2022-10-19T01:29:40.570Z,100537.95
2022-10-19T01:32:18.001Z,100539.11
2022-10-19T01:34:56.099Z,100541.76
2022-10-19T01:37:35.580Z,100549.15
2022-10-19T01:40:11.949Z,100550.26
2022-10-19T01:42:47.809Z,100543.12
2022-10-19T01:45:28.338Z,100537.45
2022-10-19T01:48:07.070Z,100534.73
2022-10-19T01:50:45.227Z,100531.91
2022-10-19T01:53:19.333Z,100532.92
2022-10-19T01:55:54.233Z,100529.64
2022-10-19T01:58:30.035Z,100524.34
2022-10-19T02:01:06.494Z,100521.03
2022-10-19T02:03:40.663Z,100519.03
2022-10-19T02:06:15.113Z,100518.39
2022-10-19T02:08:49.754Z,100514.84
2022-10-19T02:11:23.282Z,100511.41
2022-10-19T02:14:02.187Z,100509.25
2022-10-19T02:16:40.051Z,100512.05
2022-10-19T02:19:14.562Z,100508.48
2022-10-19T02:21:46.827Z,100506.73
2022-10-19T02:24:19.139Z,100506.52
2022-10-19T02:26:51.431Z,100502.55
2022-10-19T02:29:23.747Z,100502.63
2022-10-19T02:31:55.894Z,100501.02
2022-10-19T02:34:28.569Z,100499.11
2022-10-19T02:37:00.810Z,100499.52
2022-10-19T02:39:33.136Z,100501.17
2022-10-19T02:42:11.175Z,100496.50
2022-10-19T02:44:48.640Z,100493.90
2022-10-19T02:47:23.702Z,100482.44
2022-10-19T02:49:56.037Z,100484.30
2022-10-19T02:52:28.083Z,100491.95
2022-10-19T02:55:00.125Z,100492.48
2022-10-19T02:57:32.793Z,100494.40
2022-10-19T03:00:06.133Z,100495.94
2022-10-19T03:02:38.228Z,100490.02
2022-10-19T03:05:11.647Z,100491.77
2022-10-19T03:07:43.575Z,100489.23
2022-10-19T03:10:15.559Z,100487.19
2022-10-19T03:12:47.548Z,100481.52
2022-10-19T03:15:20.681Z,100481.66
2022-10-19T03:17:55.648Z,100482.19
2022-10-19T03:20:27.611Z,100481.73
2022-10-19T03:22:59.630Z,100479.56
2022-10-19T03:25:31.603Z,100477.85
2022-10-19T03:28:03.797Z,100474.63
2022-10-19T03:30:35.760Z,100467.23
2022-10-19T03:33:07.750Z,100472.30
2022-10-19T03:35:39.698Z,100471.16
2022-10-19T03:38:11.675Z,100472.95
2022-10-19T03:40:43.893Z,100473.87
2022-10-19T03:43:15.794Z,100476.30
2022-10-19T03:45:50.038Z,100480.70
2022-10-19T03:48:22.103Z,100489.06
2022-10-19T03:51:02.153Z,100489.52
2022-10-19T03:53:34.423Z,100488.14
2022-10-19T03:56:09.318Z,100489.36
2022-10-19T03:58:40.409Z,100490.34
2022-10-19T04:01:14.829Z,100492.34
2022-10-19T04:03:46.935Z,100494.45
2022-10-19T04:06:22.123Z,100491.58
2022-10-19T04:08:54.494Z,100492.14
2022-10-19T04:11:28.644Z,100496.44
2022-10-19T04:14:01.937Z,100485.14
2022-10-19T04:16:34.593Z,100486.84
2022-10-19T04:19:06.579Z,100493.61
2022-10-19T04:21:40.543Z,100494.08
2022-10-19T04:24:14.503Z,100489.72
2022-10-19T04:26:48.514Z,100490.23
2022-10-19T04:29:24.969Z,100487.80
2022-10-19T04:32:00.101Z,100487.63
2022-10-19T04:34:35.167Z,100487.15
2022-10-19T04:37:09.648Z,100490.50
2022-10-19T04:39:43.479Z,100490.29
2022-10-19T04:42:15.373Z,100493.48
2022-10-19T04:44:47.280Z,100485.98
2022-10-19T04:47:19.218Z,100484.64
2022-10-19T04:49:51.217Z,100475.52
2022-10-19T04:52:23.156Z,100468.54
2022-10-19T04:54:55.163Z,100465.42
2022-10-19T04:57:27.073Z,100468.27
2022-10-19T04:59:59.067Z,100464.89
2022-10-19T05:02:30.974Z,100464.71
2022-10-19T05:05:03.014Z,100466.34
2022-10-19T05:07:35.302Z,100468.27
2022-10-19T05:10:09.684Z,100470.72
2022-10-19T05:12:41.657Z,100465.12
2022-10-19T05:15:14.094Z,100463.05
2022-10-19T05:17:46.081Z,100464.14
2022-10-19T05:20:18.070Z,100461.48
2022-10-19T05:22:50.021Z,100460.50
2022-10-19T05:25:21.983Z,100463.54
2022-10-19T05:27:56.802Z,100467.65
2022-10-19T05:30:27.212Z,100465.86
2022-10-19T05:32:59.129Z,100469.74
2022-10-19T05:35:31.162Z,100467.41
2022-10-19T05:38:03.099Z,100468.16
2022-10-19T05:40:35.190Z,100472.34
2022-10-19T05:43:07.102Z,100474.67
2022-10-19T05:45:39.053Z,100472.82
2022-10-19T05:48:10.937Z,100476.73
2022-10-19T05:50:53.178Z,100477.70
2022-10-19T05:53:25.262Z,100479.24
2022-10-19T05:55:57.266Z,100476.86
2022-10-19T05:58:29.177Z,100477.38
2022-10-19T06:01:02.909Z,100479.23
2022-10-19T06:03:35.295Z,100481.86
2022-10-19T06:06:08.994Z,100482.13
2022-10-19T06:08:41.467Z,100479.70
2022-10-19T06:11:15.697Z,100480.08
2022-10-19T06:13:50.469Z,100480.48
2022-10-19T06:16:21.215Z,100488.48
2022-10-19T06:18:53.365Z,100491.86
2022-10-19T06:21:27.875Z,100488.99
2022-10-19T06:24:01.653Z,100495.05
2022-10-19T06:26:35.082Z,100494.58
2022-10-19T06:29:07.672Z,100502.58
2022-10-19T06:31:39.714Z,100503.92
2022-10-19T06:34:11.729Z,100507.33
2022-10-19T06:36:43.743Z,100509.73
2022-10-19T06:39:15.640Z,100513.48
2022-10-19T06:41:47.582Z,100517.36
2022-10-19T06:44:30.135Z,100515.77
2022-10-19T06:47:02.200Z,100517.14
2022-10-19T06:49:35.950Z,100524.26
2022-10-19T06:52:08.386Z,100527.82
2022-10-19T06:54:40.322Z,100527.28
2022-10-19T06:57:12.394Z,100530.44
2022-10-19T06:59:44.342Z,100533.84
2022-10-19T07:02:16.713Z,100537.69
2022-10-19T07:04:48.670Z,100539.94
2022-10-19T07:07:20.711Z,100543.41
2022-10-19T07:09:53.635Z,100549.33
2022-10-19T07:12:25.662Z,100548.86
2022-10-19T07:14:58.231Z,100548.25
2022-10-19T07:17:30.272Z,100555.34
2022-10-19T07:20:02.169Z,100559.70
2022-10-19T07:22:34.263Z,100564.25
2022-10-19T07:25:06.891Z,100568.20
2022-10-19T07:27:40.670Z,100575.66
2022-10-19T07:30:13.527Z,100579.05
2022-10-19T07:32:47.115Z,100583.85
2022-10-19T07:35:19.469Z,100587.28
2022-10-19T07:37:51.426Z,100591.38
2022-10-19T07:40:23.437Z,100592.17
2022-10-19T07:42:55.518Z,100596.95
2022-10-19T07:45:27.521Z,100599.24
2022-10-19T07:47:59.883Z,100599.02
2022-10-19T07:50:31.851Z,100600.17
2022-10-19T07:53:05.411Z,100607.76
2022-10-19T07:55:37.998Z,100607.64
2022-10-19T07:58:09.935Z,100609.86
2022-10-19T08:00:41.900Z,100612.01
2022-10-19T08:06:07.847Z,100620.76
2022-10-19T08:08:40.840Z,100620.50
2022-10-19T08:11:14.717Z,100629.98
2022-10-19T08:13:47.091Z,100629.95
2022-10-19T08:16:27.449Z,100631.13
2022-10-19T08:19:02.419Z,100628.50
2022-10-19T08:21:34.905Z,100628.40
2022-10-19T08:24:07.732Z,100635.02
2022-10-19T08:26:40.700Z,100637.82
2022-10-19T08:29:15.063Z,100639.63
2022-10-19T08:31:48.501Z,100641.55
2022-10-19T08:34:20.424Z,100642.92
2022-10-19T08:36:52.338Z,100644.73
2022-10-19T08:39:24.331Z,100653.59
2022-10-19T08:42:03.478Z,100650.14
2022-10-19T08:45:04.055Z,100656.17
2022-10-19T08:47:55.098Z,100658.65
2022-10-19T08:50:31.809Z,100659.48
2022-10-19T08:53:06.279Z,100660.63
2022-10-19T08:55:54.034Z,100659.33
2022-10-19T08:58:37.487Z,100664.20
2022-10-19T09:01:16.494Z,100667.23
2022-10-19T09:03:56.326Z,100664.73
2022-10-19T09:06:35.550Z,100667.71
2022-10-19T09:09:11.538Z,100670.14
2022-10-19T09:11:47.500Z,100673.86
2022-10-19T09:14:24.467Z,100675.71
2022-10-19T09:17:01.111Z,100673.98
2022-10-19T09:19:33.549Z,100680.92
2022-10-19T09:22:08.938Z,100682.06
2022-10-19T09:24:48.694Z,100686.91
2022-10-19T09:27:24.407Z,100687.02
2022-10-19T09:29:59.496Z,100688.73
2022-10-19T09:32:36.601Z,100692.98
2022-10-19T09:35:19.500Z,100695.56
2022-10-19T09:37:52.674Z,100692.84
2022-10-19T09:40:27.726Z,100697.10
2022-10-19T09:43:08.699Z,100698.52
2022-10-19T09:45:47.349Z,100692.13
2022-10-19T09:48:27.830Z,100695.47
2022-10-19T09:51:02.299Z,100704.67
2022-10-19T09:53:34.324Z,100703.69
2022-10-19T09:56:18.494Z,100706.92
2022-10-19T09:58:53.300Z,100704.21
2022-10-19T10:01:40.226Z,100701.90
2022-10-19T10:04:17.814Z,100706.56
2022-10-19T10:06:49.437Z,100712.08
2022-10-19T10:09:27.335Z,100709.24
2022-10-19T10:12:01.062Z,100715.30
2022-10-19T10:14:36.485Z,100714.11
2022-10-19T10:17:15.696Z,100720.08
2022-10-19T10:20:06.810Z,100731.94
2022-10-19T10:22:39.349Z,100741.35
2022-10-19T10:25:20.342Z,100739.06
2022-10-19T10:28:01.592Z,100746.70
2022-10-19T10:30:38.063Z,100743.75
2022-10-19T10:33:33.186Z,100743.38
2022-10-19T10:36:11.094Z,100748.98
2022-10-19T10:38:47.415Z,100743.85
2022-10-19T10:41:24.136Z,100744.42
2022-10-19T10:44:00.985Z,100746.75
2022-10-19T10:46:43.795Z,100751.96
2022-10-19T10:49:25.050Z,100749.77
2022-10-19T10:51:59.541Z,100748.16
2022-10-19T10:54:32.962Z,100750.69
2022-10-19T10:57:16.914Z,100750.79
2022-10-19T10:59:56.073Z,100754.41
2022-10-19T11:02:40.386Z,100771.70
2022-10-19T11:05:20.752Z,100793.05
2022-10-19T11:07:57.795Z,100790.13
2022-10-19T11:10:34.343Z,100789.59
2022-10-19T11:13:15.602Z,100788.29
2022-10-19T11:15:54.845Z,100787.55
2022-10-19T11:18:31.408Z,100789.50
2022-10-19T11:21:12.207Z,100794.85
2022-10-19T11:23:56.339Z,100792.91
2022-10-19T11:26:43.106Z,100791.11
2022-10-19T11:29:28.623Z,100785.95
2022-10-19T11:32:00.917Z,100790.84
2022-10-19T11:34:46.101Z,100789.08
2022-10-19T11:37:21.453Z,100793.45
2022-10-19T11:40:06.362Z,100789.97
2022-10-19T11:42:52.343Z,100792.02
2022-10-19T11:45:36.346Z,100789.64
2022-10-19T11:48:35.149Z,100793.11
2022-10-19T11:51:21.660Z,100791.21
2022-10-19T11:54:11.176Z,100788.75
2022-10-19T11:57:02.888Z,100795.44
2022-10-19T11:59:44.261Z,100808.39
2022-10-19T12:02:43.022Z,100814.94
2022-10-19T12:05:18.674Z,100816.96
2022-10-19T12:08:03.814Z,100812.55
2022-10-19T12:10:39.389Z,100811.80
2022-10-19T12:13:16.900Z,100814.38
2022-10-19T12:15:53.807Z,100817.48
2022-10-19T12:18:32.690Z,100818.67
2022-10-19T12:21:09.575Z,100823.67
2022-10-19T12:23:46.852Z,100825.92
2022-10-19T12:26:22.360Z,100824.42
2022-10-19T12:28:59.615Z,100820.05
2022-10-19T12:31:32.781Z,100819.04
2022-10-19T12:34:11.279Z,100814.02
2022-10-19T12:36:49.073Z,100817.02
2022-10-19T12:39:29.575Z,100818.95
2022-10-19T12:42:10.797Z,100814.61
2022-10-19T12:45:12.073Z,100814.48
2022-10-19T12:48:25.985Z,100813.35
2022-10-19T12:51:19.009Z,100818.80
2022-10-19T12:53:51.850Z,100820.73
2022-10-19T12:56:25.721Z,100819.63
2022-10-19T12:59:01.590Z,100819.63
2022-10-19T13:01:45.510Z,100821.05
2022-10-19T13:04:20.573Z,100820.95
2022-10-19T13:07:01.527Z,100822.41
2022-10-19T13:09:36.892Z,100831.28
2022-10-19T13:12:30.368Z,100829.55
2022-10-19T13:15:03.857Z,100832.75
2022-10-19T13:17:46.385Z,100833.83
2022-10-19T13:20:54.604Z,100838.00
2022-10-19T13:23:43.050Z,100836.16
2022-10-19T13:26:34.373Z,100835.45
2022-10-19T13:29:25.204Z,100836.33
2022-10-19T13:32:17.202Z,100838.70
2022-10-19T13:34:50.180Z,100844.63
2022-10-19T13:37:22.607Z,100845.33
2022-10-19T13:39:55.361Z,100851.60
2022-10-19T13:42:29.363Z,100857.30
2022-10-19T13:45:01.333Z,100860.67
2022-10-19T13:47:40.656Z,100863.20
2022-10-19T13:50:36.085Z,100866.50
2022-10-19T13:53:33.300Z,100870.45
2022-10-19T13:56:33.917Z,100868.62
2022-10-19T13:59:33.502Z,100869.05
2022-10-19T14:02:32.435Z,100869.77
2022-10-19T14:05:21.541Z,100871.89
2022-10-19T14:08:05.094Z,100875.08
2022-10-19T14:11:00.039Z,100876.80
2022-10-19T14:13:30.673Z,100881.95
2022-10-19T14:16:03.208Z,100881.17
2022-10-19T14:18:37.679Z,100880.10
2022-10-19T14:21:11.442Z,100880.51
2022-10-19T14:23:43.578Z,100882.73
2022-10-19T14:26:20.669Z,100886.67
2022-10-19T14:28:57.710Z,100890.67
2022-10-19T14:31:35.741Z,100892.97
2022-10-19T14:34:10.462Z,100899.64
2022-10-19T14:36:44.725Z,100901.16
2022-10-19T14:39:29.767Z,100905.60
2022-10-19T14:42:06.919Z,100909.33
2022-10-19T14:44:42.307Z,100910.48
2022-10-19T14:47:21.921Z,100909.17
2022-10-19T14:49:54.521Z,100910.68
2022-10-19T14:52:34.075Z,100913.41
2022-10-19T14:55:12.766Z,100914.41
2022-10-19T14:57:49.499Z,100921.71
2022-10-19T15:03:06.301Z,100919.41
2022-10-19T15:05:42.673Z,100923.23
2022-10-19T15:08:24.508Z,100924.67
2022-10-19T15:10:57.009Z,100925.66
2022-10-19T15:13:32.857Z,100927.33
2022-10-19T15:16:05.115Z,100925.79
2022-10-19T15:18:49.222Z,100930.28
2022-10-19T15:21:23.319Z,100934.44
2022-10-19T15:23:55.529Z,100935.54
2022-10-19T15:26:32.461Z,100941.82
2022-10-19T15:29:20.679Z,100945.28
2022-10-19T15:31:56.554Z,100939.86
2022-10-19T15:34:31.013Z,100945.02
2022-10-19T15:37:04.000Z,100944.30
2022-10-19T15:39:42.137Z,100946.71
2022-10-19T15:42:40.556Z,100947.93
2022-10-19T15:45:34.355Z,100955.55
2022-10-19T15:48:27.529Z,100960.79
2022-10-19T15:50:59.740Z,100966.34
2022-10-19T15:53:31.678Z,100969.03
2022-10-19T15:58:40.565Z,100974.98
2022-10-19T16:01:16.968Z,100977.80
2022-10-19T16:03:50.058Z,100980.90
2022-10-19T16:06:24.462Z,100985.21
2022-10-19T16:08:56.628Z,100987.98
2022-10-19T16:11:30.187Z,100988.04
2022-10-19T16:14:02.260Z,100990.50
2022-10-19T16:16:35.214Z,100996.13
2022-10-19T16:19:07.264Z,100997.27
2022-10-19T16:21:39.294Z,100999.49
2022-10-19T16:24:12.412Z,101005.39
2022-10-19T16:26:44.329Z,101010.13
2022-10-19T16:29:16.300Z,101012.58
2022-10-19T16:31:48.214Z,101011.55
2022-10-19T16:34:20.250Z,101009.64
2022-10-19T16:36:52.216Z,101013.70
2022-10-19T16:39:25.661Z,101014.95
2022-10-19T16:41:57.587Z,101019.48
2022-10-19T16:44:29.653Z,101022.13
2022-10-19T16:47:02.160Z,101021.10
2022-10-19T16:49:34.231Z,101026.11
2022-10-19T16:52:06.573Z,101023.70
2022-10-19T16:54:38.748Z,101023.37
2022-10-19T16:57:10.715Z,101023.77
2022-10-19T16:59:42.704Z,101029.04
2022-10-19T17:02:15.065Z,101030.46
2022-10-19T17:04:47.208Z,101028.05
2022-10-19T17:07:19.639Z,101032.93
2022-10-19T17:09:56.752Z,101031.68
2022-10-19T17:12:28.808Z,101037.02
2022-10-19T17:15:29.854Z,101036.30
2022-10-19T17:17:52.600Z,101039.79
2022-10-19T17:20:24.590Z,101048.19
2022-10-19T17:22:56.498Z,101048.27
2022-10-19T17:25:28.631Z,101051.06
2022-10-19T17:28:00.618Z,101053.41
2022-10-19T17:30:32.646Z,101056.94
2022-10-19T17:33:04.539Z,101059.41
2022-10-19T17:35:37.935Z,101060.19
2022-10-19T17:38:10.233Z,101062.39
2022-10-19T17:40:42.240Z,101062.45
2022-10-19T17:43:14.406Z,101066.14
2022-10-19T17:45:46.318Z,101072.84
2022-10-19T17:48:19.128Z,101072.77
2022-10-19T17:51:00.732Z,101074.24
2022-10-19T17:53:34.055Z,101078.83
2022-10-19T17:56:08.233Z,101088.45
2022-10-19T17:58:40.470Z,101091.50
2022-10-19T18:01:13.714Z,101092.02
2022-10-19T18:03:45.979Z,101092.36
2022-10-19T18:06:22.177Z,101098.54
2022-10-19T18:08:56.033Z,101099.34
2022-10-19T18:11:29.998Z,101104.18
2022-10-19T18:14:03.160Z,101108.69
2022-10-19T18:16:37.256Z,101107.16
2022-10-19T18:19:09.775Z,101111.70
2022-10-19T18:21:44.064Z,101113.63
2022-10-19T18:24:20.125Z,101113.95
2022-10-19T18:26:53.292Z,101117.42
2022-10-19T18:29:27.156Z,101115.70
2022-10-19T18:31:59.259Z,101119.60
2022-10-19T18:34:31.425Z,101117.14
2022-10-19T18:37:03.449Z,101121.68
2022-10-19T18:39:36.235Z,101122.44
2022-10-19T18:42:08.238Z,101125.64
2022-10-19T18:44:40.321Z,101129.12
2022-10-19T18:47:12.685Z,101129.85
2022-10-19T18:49:44.632Z,101129.54
2022-10-19T18:52:16.595Z,101131.36
2022-10-19T18:54:48.522Z,101126.25
2022-10-19T18:57:20.511Z,101126.45
2022-10-19T18:59:52.474Z,101125.17
2022-10-19T19:02:34.933Z,101125.91
2022-10-19T19:05:14.542Z,101120.70
2022-10-19T19:07:46.503Z,101127.30
2022-10-19T19:10:18.970Z,101129.59
2022-10-19T19:12:52.182Z,101132.80
2022-10-19T19:15:24.075Z,101133.39
2022-10-19T19:17:57.777Z,101135.83
2022-10-19T19:20:29.762Z,101140.26
2022-10-19T19:23:01.885Z,101147.19
2022-10-19T19:25:33.826Z,101150.98
2022-10-19T19:28:05.791Z,101152.81
2022-10-19T19:30:42.998Z,101157.45
2022-10-19T19:33:15.523Z,101155.69
2022-10-19T19:35:48.637Z,101155.39
2022-10-19T19:38:20.765Z,101155.45
2022-10-19T19:40:52.710Z,101162.20
2022-10-19T19:43:24.766Z,101163.10
2022-10-19T19:46:04.615Z,101164.27
2022-10-19T19:48:40.738Z,101167.01
2022-10-19T19:51:14.478Z,101168.33
2022-10-19T19:53:47.262Z,101172.19
2022-10-19T19:56:20.721Z,101177.04
2022-10-19T19:58:57.052Z,101177.52
2022-10-19T20:01:29.379Z,101183.98
2022-10-19T20:06:41.499Z,101191.59
2022-10-19T20:09:13.500Z,101193.34
2022-10-19T20:11:46.754Z,101193.23
2022-10-19T20:14:18.887Z,101191.36
2022-10-19T20:16:51.169Z,101201.18
2022-10-19T20:19:23.180Z,101201.30
2022-10-19T20:21:56.404Z,101209.03
2022-10-19T20:24:28.481Z,101216.94
2022-10-19T20:27:00.455Z,101217.20
2022-10-19T20:29:32.560Z,101215.60
2022-10-19T20:32:04.505Z,101215.88
2022-10-19T20:34:37.468Z,101215.06
2022-10-19T20:37:10.254Z,101210.02
2022-10-19T20:39:42.176Z,101216.59
2022-10-19T20:42:14.260Z,101218.12
2022-10-19T20:44:46.622Z,101220.00
2022-10-19T20:47:18.562Z,101220.30
2022-10-19T20:49:50.671Z,101218.42
2022-10-19T20:52:22.688Z,101215.56
2022-10-19T20:54:54.655Z,101213.69
2022-10-19T20:57:26.658Z,101215.20
2022-10-19T20:59:58.624Z,101215.52
2022-10-19T21:02:30.556Z,101218.21
2022-10-19T21:05:02.552Z,101218.83
2022-10-19T21:07:34.480Z,101219.98
2022-10-19T21:10:07.191Z,101216.23
2022-10-19T21:12:39.152Z,101213.73
2022-10-19T21:15:12.582Z,101218.45
2022-10-19T21:17:44.539Z,101220.65
2022-10-19T21:20:16.740Z,101225.27
2022-10-19T21:22:48.679Z,101225.07
2022-10-19T21:25:20.734Z,101225.05
2022-10-19T21:27:55.565Z,101228.05
2022-10-19T21:30:28.034Z,101224.21
2022-10-19T21:32:59.960Z,101219.97
2022-10-19T21:35:31.963Z,101218.46
2022-10-19T21:38:03.894Z,101217.34
2022-10-19T21:40:37.796Z,101218.38
2022-10-19T21:43:11.401Z,101219.04
2022-10-19T21:45:43.397Z,101213.00
2022-10-19T21:48:15.451Z,101210.81
2022-10-19T21:50:47.459Z,101213.69
2022-10-19T21:53:23.660Z,101213.14
2022-10-19T21:55:56.352Z,101208.56
2022-10-19T21:58:29.054Z,101213.88
2022-10-19T22:01:08.709Z,101218.92
2022-10-19T22:03:40.893Z,101222.30
2022-10-19T22:06:14.121Z,101220.91
2022-10-19T22:08:49.306Z,101212.05
2022-10-19T22:11:21.737Z,101208.49
2022-10-19T22:13:56.926Z,101208.72
2022-10-19T22:16:30.474Z,101211.93
2022-10-19T22:19:02.463Z,101212.72
2022-10-19T22:21:35.713Z,101211.30
2022-10-19T22:24:10.865Z,101215.92
2022-10-19T22:26:44.944Z,101219.20
2022-10-19T22:29:17.015Z,101226.00
2022-10-19T22:31:49.065Z,101230.13
2022-10-19T22:34:21.221Z,101235.52
2022-10-19T22:36:53.503Z,101236.02
2022-10-19T22:39:27.792Z,101233.42
2022-10-19T22:42:52.950Z,101238.22
2022-10-19T22:45:39.938Z,101236.34
2022-10-19T22:48:12.014Z,101235.83
2022-10-19T22:50:44.560Z,101233.92
2022-10-19T22:53:16.485Z,101235.20
2022-10-19T22:55:48.450Z,101229.73
2022-10-19T22:58:20.765Z,101230.02
2022-10-19T23:01:03.600Z,101231.88
2022-10-19T23:03:36.314Z,101230.52
2022-10-19T23:06:09.430Z,101228.24
2022-10-19T23:08:41.912Z,101230.36
2022-10-19T23:11:14.468Z,101234.41
2022-10-19T23:13:46.403Z,101241.73
2022-10-19T23:16:18.404Z,101241.63
2022-10-19T23:18:50.474Z,101250.32
2022-10-19T23:21:22.602Z,101258.06
2022-10-19T23:23:54.750Z,101264.35
2022-10-19T23:26:27.036Z,101259.66
2022-10-19T23:28:58.911Z,101259.20
2022-10-19T23:31:31.238Z,101259.92
2022-10-19T23:34:03.165Z,101261.28
2022-10-19T23:36:35.107Z,101267.84
2022-10-19T23:39:07.780Z,101270.52
2022-10-19T23:41:39.706Z,101272.71
2022-10-19T23:44:12.084Z,101270.88
2022-10-19T23:46:44.115Z,101277.05
2022-10-19T23:49:16.445Z,101278.42
2022-10-19T23:51:48.461Z,101280.00
2022-10-19T23:54:20.370Z,101283.94
2022-10-19T23:56:52.370Z,101289.23
2022-10-19T23:59:24.642Z,101289.46
